sensor_id;sensor_type;location;lat;lon;timestamp;temperature;humidity
2012;DHT22;1009;51.436;6.972;2023-03-23T00:00:56;11.60;99.90
2012;DHT22;1009;51.436;6.972;2023-03-23T00:03:23;11.50;99.90
2012;DHT22;1009;51.436;6.972;2023-03-23T00:05:54;11.60;99.90
2012;DHT22;1009;51.436;6.972;2023-03-23T00:08:28;11.50;99.90
2012;DHT22;1009;51.436;6.972;2023-03-23T00:10:54;11.70;99.90
2012;DHT22;1009;51.436;6.972;2023-03-23T00:13:23;11.80;99.90
2012;DHT22;1009;51.436;6.972;2023-03-23T00:15:51;11.80;99.90
2012;DHT22;1009;51.436;6.972;2023-03-23T00:18:18;11.80;99.90
2012;DHT22;1009;51.436;6.972;2023-03-23T00:20:48;11.80;99.90
2012;DHT22;1009;51.436;6.972;2023-03-23T00:23:16;11.80;99.90
2012;DHT22;1009;51.436;6.972;2023-03-23T00:25:45;11.80;99.90
2012;DHT22;1009;51.436;6.972;2023-03-23T00:28:13;11.80;99.90
2012;DHT22;1009;51.436;6.972;2023-03-23T00:30:40;11.90;99.90
2012;DHT22;1009;51.436;6.972;2023-03-23T00:33:11;11.90;99.90
2012;DHT22;1009;51.436;6.972;2023-03-23T00:35:40;11.90;99.90
2012;DHT22;1009;51.436;6.972;2023-03-23T00:38:07;12.00;99.90
2012;DHT22;1009;51.436;6.972;2023-03-23T00:40:34;12.00;99.90
2012;DHT22;1009;51.436;6.972;2023-03-23T00:43:02;12.10;99.90
2012;DHT22;1009;51.436;6.972;2023-03-23T00:45:30;12.00;99.90
2012;DHT22;1009;51.436;6.972;2023-03-23T00:47:57;12.20;99.90
2012;DHT22;1009;51.436;6.972;2023-03-23T00:50:28;12.10;99.90
2012;DHT22;1009;51.436;6.972;2023-03-23T00:52:55;12.00;99.90
2012;DHT22;1009;51.436;6.972;2023-03-23T00:55:23;12.00;99.90
2012;DHT22;1009;51.436;6.972;2023-03-23T00:57:50;12.20;99.90
2012;DHT22;1009;51.436;6.972;2023-03-23T01:00:17;12.20;99.90
2012;DHT22;1009;51.436;6.972;2023-03-23T01:02:45;12.10;99.90
2012;DHT22;1009;51.436;6.972;2023-03-23T01:05:15;12.20;99.90
2012;DHT22;1009;51.436;6.972;2023-03-23T01:07:43;12.10;99.90
2012;DHT22;1009;51.436;6.972;2023-03-23T01:10:11;12.30;99.90
2012;DHT22;1009;51.436;6.972;2023-03-23T01:12:42;12.30;99.90
2012;DHT22;1009;51.436;6.972;2023-03-23T01:15:12;12.30;99.90
2012;DHT22;1009;51.436;6.972;2023-03-23T01:17:40;12.30;99.90
2012;DHT22;1009;51.436;6.972;2023-03-23T01:20:07;12.30;99.90
2012;DHT22;1009;51.436;6.972;2023-03-23T01:22:34;12.20;99.90
2012;DHT22;1009;51.436;6.972;2023-03-23T01:25:06;12.30;99.90
2012;DHT22;1009;51.436;6.972;2023-03-23T01:27:33;12.20;99.90
2012;DHT22;1009;51.436;6.972;2023-03-23T01:30:00;12.20;99.90
2012;DHT22;1009;51.436;6.972;2023-03-23T01:32:26;12.30;99.90
2012;DHT22;1009;51.436;6.972;2023-03-23T01:34:53;12.30;99.90
2012;DHT22;1009;51.436;6.972;2023-03-23T01:37:20;12.30;99.90
2012;DHT22;1009;51.436;6.972;2023-03-23T01:39:52;12.40;99.90
2012;DHT22;1009;51.436;6.972;2023-03-23T01:42:21;12.40;99.90
2012;DHT22;1009;51.436;6.972;2023-03-23T01:47:57;12.30;99.90
2012;DHT22;1009;51.436;6.972;2023-03-23T01:50:25;12.20;99.90
2012;DHT22;1009;51.436;6.972;2023-03-23T01:52:53;12.30;99.90
2012;DHT22;1009;51.436;6.972;2023-03-23T01:55:22;12.30;99.90
2012;DHT22;1009;51.436;6.972;2023-03-23T01:57:51;12.20;99.90
2012;DHT22;1009;51.436;6.972;2023-03-23T02:00:19;12.20;99.90
2012;DHT22;1009;51.436;6.972;2023-03-23T02:02:48;12.20;99.90
2012;DHT22;1009;51.436;6.972;2023-03-23T02:05:21;12.30;99.90
2012;DHT22;1009;51.436;6.972;2023-03-23T02:07:50;12.30;99.90
2012;DHT22;1009;51.436;6.972;2023-03-23T02:10:17;12.30;99.90
2012;DHT22;1009;51.436;6.972;2023-03-23T02:12:44;12.20;99.90
2012;DHT22;1009;51.436;6.972;2023-03-23T02:15:12;12.30;99.90
2012;DHT22;1009;51.436;6.972;2023-03-23T02:17:45;12.20;99.90
2012;DHT22;1009;51.436;6.972;2023-03-23T02:20:23;12.30;99.90
2012;DHT22;1009;51.436;6.972;2023-03-23T02:23:14;12.30;99.90
2012;DHT22;1009;51.436;6.972;2023-03-23T02:25:59;12.20;99.90
2012;DHT22;1009;51.436;6.972;2023-03-23T02:31:44;12.20;99.90
2012;DHT22;1009;51.436;6.972;2023-03-23T02:34:16;12.00;99.90
2012;DHT22;1009;51.436;6.972;2023-03-23T02:36:46;11.90;99.90
2012;DHT22;1009;51.436;6.972;2023-03-23T02:39:19;11.90;99.90
2012;DHT22;1009;51.436;6.972;2023-03-23T02:41:50;11.90;99.90
2012;DHT22;1009;51.436;6.972;2023-03-23T02:44:19;11.90;99.90
2012;DHT22;1009;51.436;6.972;2023-03-23T02:46:48;12.00;99.90
2012;DHT22;1009;51.436;6.972;2023-03-23T02:49:18;11.90;99.90
2012;DHT22;1009;51.436;6.972;2023-03-23T02:51:47;11.90;99.90
2012;DHT22;1009;51.436;6.972;2023-03-23T02:54:15;11.90;99.90
2012;DHT22;1009;51.436;6.972;2023-03-23T02:56:43;11.90;99.90
2012;DHT22;1009;51.436;6.972;2023-03-23T02:59:11;11.80;99.90
2012;DHT22;1009;51.436;6.972;2023-03-23T03:02:05;11.90;99.90
2012;DHT22;1009;51.436;6.972;2023-03-23T03:04:35;11.80;99.90
2012;DHT22;1009;51.436;6.972;2023-03-23T03:07:23;11.80;99.90
2012;DHT22;1009;51.436;6.972;2023-03-23T03:09:54;11.80;99.90
2012;DHT22;1009;51.436;6.972;2023-03-23T03:12:30;11.70;99.90
2012;DHT22;1009;51.436;6.972;2023-03-23T03:15:06;11.80;99.90
2012;DHT22;1009;51.436;6.972;2023-03-23T03:17:38;11.90;99.90
2012;DHT22;1009;51.436;6.972;2023-03-23T03:20:10;11.90;99.90
2012;DHT22;1009;51.436;6.972;2023-03-23T03:22:41;11.90;99.90
2012;DHT22;1009;51.436;6.972;2023-03-23T03:25:10;11.90;99.90
2012;DHT22;1009;51.436;6.972;2023-03-23T03:27:39;11.80;99.90
2012;DHT22;1009;51.436;6.972;2023-03-23T03:30:09;11.90;99.90
2012;DHT22;1009;51.436;6.972;2023-03-23T03:32:41;12.00;99.90
2012;DHT22;1009;51.436;6.972;2023-03-23T03:35:13;12.00;99.90
2012;DHT22;1009;51.436;6.972;2023-03-23T03:37:40;11.90;99.90
2012;DHT22;1009;51.436;6.972;2023-03-23T03:40:09;11.90;99.90
2012;DHT22;1009;51.436;6.972;2023-03-23T03:42:36;12.00;99.90
2012;DHT22;1009;51.436;6.972;2023-03-23T03:45:04;12.00;99.90
2012;DHT22;1009;51.436;6.972;2023-03-23T03:47:31;12.00;99.90
2012;DHT22;1009;51.436;6.972;2023-03-23T03:49:57;12.00;99.90
2012;DHT22;1009;51.436;6.972;2023-03-23T03:52:26;12.00;99.90
2012;DHT22;1009;51.436;6.972;2023-03-23T03:54:53;12.00;99.90
2012;DHT22;1009;51.436;6.972;2023-03-23T03:57:20;12.10;99.90
2012;DHT22;1009;51.436;6.972;2023-03-23T03:59:47;12.00;99.90
2012;DHT22;1009;51.436;6.972;2023-03-23T04:02:14;12.10;99.90
2012;DHT22;1009;51.436;6.972;2023-03-23T04:04:45;12.00;99.90
2012;DHT22;1009;51.436;6.972;2023-03-23T04:07:12;12.10;99.90
2012;DHT22;1009;51.436;6.972;2023-03-23T04:09:40;12.10;99.90
2012;DHT22;1009;51.436;6.972;2023-03-23T04:12:07;12.00;99.90
2012;DHT22;1009;51.436;6.972;2023-03-23T04:14:34;12.00;99.90
2012;DHT22;1009;51.436;6.972;2023-03-23T04:17:01;12.00;99.90
2012;DHT22;1009;51.436;6.972;2023-03-23T04:19:28;12.00;99.90
2012;DHT22;1009;51.436;6.972;2023-03-23T04:21:58;12.00;99.90
2012;DHT22;1009;51.436;6.972;2023-03-23T04:24:25;12.00;99.90
2012;DHT22;1009;51.436;6.972;2023-03-23T04:26:55;12.00;99.90
2012;DHT22;1009;51.436;6.972;2023-03-23T04:29:21;12.10;99.90
2012;DHT22;1009;51.436;6.972;2023-03-23T04:31:48;12.00;99.90
2012;DHT22;1009;51.436;6.972;2023-03-23T04:34:16;12.10;99.90
2012;DHT22;1009;51.436;6.972;2023-03-23T04:36:43;12.00;99.90
2012;DHT22;1009;51.436;6.972;2023-03-23T04:39:12;12.00;99.90
2012;DHT22;1009;51.436;6.972;2023-03-23T04:41:39;12.00;99.90
2012;DHT22;1009;51.436;6.972;2023-03-23T04:44:08;12.10;99.90
2012;DHT22;1009;51.436;6.972;2023-03-23T04:46:35;12.10;99.90
2012;DHT22;1009;51.436;6.972;2023-03-23T04:49:02;12.10;99.90
2012;DHT22;1009;51.436;6.972;2023-03-23T04:51:29;12.10;99.90
2012;DHT22;1009;51.436;6.972;2023-03-23T04:53:56;12.10;99.90
2012;DHT22;1009;51.436;6.972;2023-03-23T04:56:23;12.20;99.90
2012;DHT22;1009;51.436;6.972;2023-03-23T04:58:50;12.10;99.90
2012;DHT22;1009;51.436;6.972;2023-03-23T05:01:18;12.10;99.90
2012;DHT22;1009;51.436;6.972;2023-03-23T05:03:45;12.10;99.90
2012;DHT22;1009;51.436;6.972;2023-03-23T05:06:12;12.20;99.90
2012;DHT22;1009;51.436;6.972;2023-03-23T05:08:39;12.20;99.90
2012;DHT22;1009;51.436;6.972;2023-03-23T05:11:06;12.20;99.90
2012;DHT22;1009;51.436;6.972;2023-03-23T05:13:34;12.20;99.90
2012;DHT22;1009;51.436;6.972;2023-03-23T05:16:03;12.30;99.90
2012;DHT22;1009;51.436;6.972;2023-03-23T05:18:32;12.20;99.90
2012;DHT22;1009;51.436;6.972;2023-03-23T05:21:00;12.30;99.90
2012;DHT22;1009;51.436;6.972;2023-03-23T05:23:27;12.30;99.90
2012;DHT22;1009;51.436;6.972;2023-03-23T05:25:57;12.30;99.90
2012;DHT22;1009;51.436;6.972;2023-03-23T05:28:26;12.30;99.90
2012;DHT22;1009;51.436;6.972;2023-03-23T05:30:54;12.20;99.90
2012;DHT22;1009;51.436;6.972;2023-03-23T05:33:21;12.30;99.90
2012;DHT22;1009;51.436;6.972;2023-03-23T05:35:50;12.30;99.90
2012;DHT22;1009;51.436;6.972;2023-03-23T05:38:16;12.30;99.90
2012;DHT22;1009;51.436;6.972;2023-03-23T05:40:43;12.30;99.90
2012;DHT22;1009;51.436;6.972;2023-03-23T05:43:10;12.30;99.90
2012;DHT22;1009;51.436;6.972;2023-03-23T05:45:37;12.30;99.90
2012;DHT22;1009;51.436;6.972;2023-03-23T05:48:04;12.30;99.90
2012;DHT22;1009;51.436;6.972;2023-03-23T05:50:31;12.30;99.90
2012;DHT22;1009;51.436;6.972;2023-03-23T05:52:59;12.40;99.90
2012;DHT22;1009;51.436;6.972;2023-03-23T05:55:27;12.40;99.90
2012;DHT22;1009;51.436;6.972;2023-03-23T05:57:53;12.40;99.90
2012;DHT22;1009;51.436;6.972;2023-03-23T06:00:21;12.40;99.90
2012;DHT22;1009;51.436;6.972;2023-03-23T06:02:49;12.40;99.90
2012;DHT22;1009;51.436;6.972;2023-03-23T06:05:17;12.40;99.90
2012;DHT22;1009;51.436;6.972;2023-03-23T06:07:44;12.40;99.90
2012;DHT22;1009;51.436;6.972;2023-03-23T06:10:13;12.40;99.90
2012;DHT22;1009;51.436;6.972;2023-03-23T06:12:40;12.40;99.90
2012;DHT22;1009;51.436;6.972;2023-03-23T06:15:08;12.40;99.90
2012;DHT22;1009;51.436;6.972;2023-03-23T06:17:35;12.40;99.90
2012;DHT22;1009;51.436;6.972;2023-03-23T06:20:04;12.40;99.90
2012;DHT22;1009;51.436;6.972;2023-03-23T06:22:36;12.50;99.90
2012;DHT22;1009;51.436;6.972;2023-03-23T06:25:08;12.50;99.90
2012;DHT22;1009;51.436;6.972;2023-03-23T06:27:36;12.50;99.90
2012;DHT22;1009;51.436;6.972;2023-03-23T06:30:04;12.50;99.90
2012;DHT22;1009;51.436;6.972;2023-03-23T06:32:32;12.40;99.90
2012;DHT22;1009;51.436;6.972;2023-03-23T06:34:59;12.40;99.90
2012;DHT22;1009;51.436;6.972;2023-03-23T06:37:26;12.50;99.90
2012;DHT22;1009;51.436;6.972;2023-03-23T06:39:53;12.60;99.90
2012;DHT22;1009;51.436;6.972;2023-03-23T06:42:21;12.50;99.90
2012;DHT22;1009;51.436;6.972;2023-03-23T06:44:50;12.60;99.90
2012;DHT22;1009;51.436;6.972;2023-03-23T06:47:17;12.50;99.90
2012;DHT22;1009;51.436;6.972;2023-03-23T06:49:44;12.50;99.90
2012;DHT22;1009;51.436;6.972;2023-03-23T06:52:11;12.50;99.90
2012;DHT22;1009;51.436;6.972;2023-03-23T06:54:38;12.60;99.90
2012;DHT22;1009;51.436;6.972;2023-03-23T06:57:04;12.60;99.90
2012;DHT22;1009;51.436;6.972;2023-03-23T06:59:31;12.60;99.90
2012;DHT22;1009;51.436;6.972;2023-03-23T07:01:59;12.70;99.90
2012;DHT22;1009;51.436;6.972;2023-03-23T07:04:27;12.60;99.90
2012;DHT22;1009;51.436;6.972;2023-03-23T07:06:53;12.70;99.90
2012;DHT22;1009;51.436;6.972;2023-03-23T07:09:21;12.70;99.90
2012;DHT22;1009;51.436;6.972;2023-03-23T07:11:48;12.70;99.90
2012;DHT22;1009;51.436;6.972;2023-03-23T07:14:17;12.80;99.90
2012;DHT22;1009;51.436;6.972;2023-03-23T07:16:44;12.70;99.90
2012;DHT22;1009;51.436;6.972;2023-03-23T07:19:13;12.70;99.90
2012;DHT22;1009;51.436;6.972;2023-03-23T07:21:41;12.70;99.90
2012;DHT22;1009;51.436;6.972;2023-03-23T07:24:10;12.70;99.90
2012;DHT22;1009;51.436;6.972;2023-03-23T07:26:39;12.70;99.90
2012;DHT22;1009;51.436;6.972;2023-03-23T07:29:07;12.80;99.90
2012;DHT22;1009;51.436;6.972;2023-03-23T07:31:35;12.70;99.90
2012;DHT22;1009;51.436;6.972;2023-03-23T07:34:01;12.70;99.90
2012;DHT22;1009;51.436;6.972;2023-03-23T07:36:30;12.70;99.90
2012;DHT22;1009;51.436;6.972;2023-03-23T07:38:58;12.70;99.90
2012;DHT22;1009;51.436;6.972;2023-03-23T07:41:25;12.70;99.90
2012;DHT22;1009;51.436;6.972;2023-03-23T07:43:51;12.80;99.90
2012;DHT22;1009;51.436;6.972;2023-03-23T07:46:18;12.80;99.90
2012;DHT22;1009;51.436;6.972;2023-03-23T07:48:45;12.80;99.90
2012;DHT22;1009;51.436;6.972;2023-03-23T07:51:12;12.80;99.90
2012;DHT22;1009;51.436;6.972;2023-03-23T07:53:40;12.80;99.90
2012;DHT22;1009;51.436;6.972;2023-03-23T07:56:10;12.80;99.90
2012;DHT22;1009;51.436;6.972;2023-03-23T07:58:37;12.90;99.90
2012;DHT22;1009;51.436;6.972;2023-03-23T08:01:04;12.90;99.90
2012;DHT22;1009;51.436;6.972;2023-03-23T08:03:31;12.90;99.90
2012;DHT22;1009;51.436;6.972;2023-03-23T08:05:58;12.80;99.90
2012;DHT22;1009;51.436;6.972;2023-03-23T08:08:25;12.80;99.90
2012;DHT22;1009;51.436;6.972;2023-03-23T08:10:53;12.80;99.90
2012;DHT22;1009;51.436;6.972;2023-03-23T08:13:20;12.90;99.90
2012;DHT22;1009;51.436;6.972;2023-03-23T08:15:46;12.80;99.90
2012;DHT22;1009;51.436;6.972;2023-03-23T08:18:14;12.90;99.90
2012;DHT22;1009;51.436;6.972;2023-03-23T08:20:40;12.90;99.90
2012;DHT22;1009;51.436;6.972;2023-03-23T08:23:08;12.90;99.90
2012;DHT22;1009;51.436;6.972;2023-03-23T08:25:35;12.90;99.90
2012;DHT22;1009;51.436;6.972;2023-03-23T08:28:04;13.00;99.90
2012;DHT22;1009;51.436;6.972;2023-03-23T08:30:33;13.00;99.90
2012;DHT22;1009;51.436;6.972;2023-03-23T08:33:02;13.00;99.90
2012;DHT22;1009;51.436;6.972;2023-03-23T08:35:30;13.10;99.90
2012;DHT22;1009;51.436;6.972;2023-03-23T08:37:58;13.10;99.90
2012;DHT22;1009;51.436;6.972;2023-03-23T08:40:26;13.30;99.90
2012;DHT22;1009;51.436;6.972;2023-03-23T08:42:53;13.40;99.90
2012;DHT22;1009;51.436;6.972;2023-03-23T08:45:23;13.40;99.90
2012;DHT22;1009;51.436;6.972;2023-03-23T08:47:50;13.40;99.90
2012;DHT22;1009;51.436;6.972;2023-03-23T08:50:23;13.40;99.90
2012;DHT22;1009;51.436;6.972;2023-03-23T08:52:50;13.40;99.90
2012;DHT22;1009;51.436;6.972;2023-03-23T08:55:17;13.40;99.90
2012;DHT22;1009;51.436;6.972;2023-03-23T08:57:44;13.50;99.90
2012;DHT22;1009;51.436;6.972;2023-03-23T09:00:14;13.50;99.90
2012;DHT22;1009;51.436;6.972;2023-03-23T09:02:45;13.50;99.90
2012;DHT22;1009;51.436;6.972;2023-03-23T09:05:13;13.50;99.90
2012;DHT22;1009;51.436;6.972;2023-03-23T09:07:41;13.40;99.90
2012;DHT22;1009;51.436;6.972;2023-03-23T09:10:09;13.40;99.90
2012;DHT22;1009;51.436;6.972;2023-03-23T09:12:36;13.40;99.90
2012;DHT22;1009;51.436;6.972;2023-03-23T09:15:04;13.40;99.90
2012;DHT22;1009;51.436;6.972;2023-03-23T09:17:34;13.40;99.90
2012;DHT22;1009;51.436;6.972;2023-03-23T09:20:03;13.40;99.90
2012;DHT22;1009;51.436;6.972;2023-03-23T09:22:34;13.40;99.90
2012;DHT22;1009;51.436;6.972;2023-03-23T09:25:01;13.40;99.90
2012;DHT22;1009;51.436;6.972;2023-03-23T09:27:29;13.30;99.90
2012;DHT22;1009;51.436;6.972;2023-03-23T09:29:56;13.30;99.90
2012;DHT22;1009;51.436;6.972;2023-03-23T09:32:22;13.30;99.90
2012;DHT22;1009;51.436;6.972;2023-03-23T09:34:49;13.40;99.90
2012;DHT22;1009;51.436;6.972;2023-03-23T09:37:18;13.50;99.90
2012;DHT22;1009;51.436;6.972;2023-03-23T09:39:45;13.40;99.90
2012;DHT22;1009;51.436;6.972;2023-03-23T09:42:23;13.40;99.90
2012;DHT22;1009;51.436;6.972;2023-03-23T09:45:01;13.30;99.90
2012;DHT22;1009;51.436;6.972;2023-03-23T09:47:37;13.30;99.90
2012;DHT22;1009;51.436;6.972;2023-03-23T09:50:10;13.30;99.90
2012;DHT22;1009;51.436;6.972;2023-03-23T09:52:43;13.30;99.90
2012;DHT22;1009;51.436;6.972;2023-03-23T09:55:13;13.30;99.90
2012;DHT22;1009;51.436;6.972;2023-03-23T09:57:45;13.20;99.90
2012;DHT22;1009;51.436;6.972;2023-03-23T10:00:18;13.00;99.90
2012;DHT22;1009;51.436;6.972;2023-03-23T10:02:52;12.30;99.90
2012;DHT22;1009;51.436;6.972;2023-03-23T10:05:35;11.70;99.90
2012;DHT22;1009;51.436;6.972;2023-03-23T10:08:09;11.40;99.90
2012;DHT22;1009;51.436;6.972;2023-03-23T10:10:46;11.20;99.90
2012;DHT22;1009;51.436;6.972;2023-03-23T10:13:26;10.90;99.90
2012;DHT22;1009;51.436;6.972;2023-03-23T10:15:55;10.80;99.90
2012;DHT22;1009;51.436;6.972;2023-03-23T10:18:29;10.70;99.90
2012;DHT22;1009;51.436;6.972;2023-03-23T10:20:58;10.60;99.90
2012;DHT22;1009;51.436;6.972;2023-03-23T10:23:49;10.50;99.90
2012;DHT22;1009;51.436;6.972;2023-03-23T10:26:32;10.60;99.90
2012;DHT22;1009;51.436;6.972;2023-03-23T10:29:07;10.50;99.90
2012;DHT22;1009;51.436;6.972;2023-03-23T10:31:38;10.50;99.90
2012;DHT22;1009;51.436;6.972;2023-03-23T10:34:10;10.60;99.90
2012;DHT22;1009;51.436;6.972;2023-03-23T10:36:51;10.60;99.90
2012;DHT22;1009;51.436;6.972;2023-03-23T10:39:26;10.70;99.90
2012;DHT22;1009;51.436;6.972;2023-03-23T10:41:54;10.70;99.90
2012;DHT22;1009;51.436;6.972;2023-03-23T10:44:23;10.80;99.90
2012;DHT22;1009;51.436;6.972;2023-03-23T10:46:57;10.80;99.90
2012;DHT22;1009;51.436;6.972;2023-03-23T10:49:28;10.70;99.90
2012;DHT22;1009;51.436;6.972;2023-03-23T10:52:24;10.60;99.90
2012;DHT22;1009;51.436;6.972;2023-03-23T10:54:55;10.70;99.90
2012;DHT22;1009;51.436;6.972;2023-03-23T10:57:25;10.80;99.90
2012;DHT22;1009;51.436;6.972;2023-03-23T10:59:59;10.70;99.90
2012;DHT22;1009;51.436;6.972;2023-03-23T11:02:27;10.70;99.90
2012;DHT22;1009;51.436;6.972;2023-03-23T11:04:56;10.60;99.90
2012;DHT22;1009;51.436;6.972;2023-03-23T11:07:29;10.80;99.90
2012;DHT22;1009;51.436;6.972;2023-03-23T11:10:03;10.90;99.90
2012;DHT22;1009;51.436;6.972;2023-03-23T11:12:33;10.80;99.90
2012;DHT22;1009;51.436;6.972;2023-03-23T11:15:21;10.70;99.90
2012;DHT22;1009;51.436;6.972;2023-03-23T11:17:55;10.60;99.90
2012;DHT22;1009;51.436;6.972;2023-03-23T11:20:22;10.60;99.90
2012;DHT22;1009;51.436;6.972;2023-03-23T11:22:51;10.60;99.90
2012;DHT22;1009;51.436;6.972;2023-03-23T11:25:17;10.80;99.90
2012;DHT22;1009;51.436;6.972;2023-03-23T11:27:44;10.80;99.90
2012;DHT22;1009;51.436;6.972;2023-03-23T11:30:20;10.90;99.90
2012;DHT22;1009;51.436;6.972;2023-03-23T11:32:48;10.80;99.90
2012;DHT22;1009;51.436;6.972;2023-03-23T11:35:18;10.80;99.90
2012;DHT22;1009;51.436;6.972;2023-03-23T11:37:48;10.90;99.90
2012;DHT22;1009;51.436;6.972;2023-03-23T11:40:20;10.80;99.90
2012;DHT22;1009;51.436;6.972;2023-03-23T11:42:49;10.80;99.90
2012;DHT22;1009;51.436;6.972;2023-03-23T11:45:21;10.90;99.90
2012;DHT22;1009;51.436;6.972;2023-03-23T11:47:58;11.00;99.90
2012;DHT22;1009;51.436;6.972;2023-03-23T11:50:29;10.80;99.90
2012;DHT22;1009;51.436;6.972;2023-03-23T11:53:01;10.80;99.90
2012;DHT22;1009;51.436;6.972;2023-03-23T11:55:50;10.90;99.90
2012;DHT22;1009;51.436;6.972;2023-03-23T11:58:19;11.00;99.90
2012;DHT22;1009;51.436;6.972;2023-03-23T12:00:49;10.90;99.90
2012;DHT22;1009;51.436;6.972;2023-03-23T12:03:42;10.80;99.90
2012;DHT22;1009;51.436;6.972;2023-03-23T12:06:14;10.90;99.90
2012;DHT22;1009;51.436;6.972;2023-03-23T12:08:56;10.90;99.90
2012;DHT22;1009;51.436;6.972;2023-03-23T12:11:31;10.90;99.90
2012;DHT22;1009;51.436;6.972;2023-03-23T12:14:09;10.90;99.90
2012;DHT22;1009;51.436;6.972;2023-03-23T12:16:48;10.80;99.90
2012;DHT22;1009;51.436;6.972;2023-03-23T12:19:21;10.80;99.90
2012;DHT22;1009;51.436;6.972;2023-03-23T12:21:58;10.80;99.90
2012;DHT22;1009;51.436;6.972;2023-03-23T12:24:39;11.00;99.90
2012;DHT22;1009;51.436;6.972;2023-03-23T12:27:18;10.80;99.90
2012;DHT22;1009;51.436;6.972;2023-03-23T12:30:04;10.90;99.90
2012;DHT22;1009;51.436;6.972;2023-03-23T12:35:45;10.80;99.90
2012;DHT22;1009;51.436;6.972;2023-03-23T12:38:41;10.90;99.90
2012;DHT22;1009;51.436;6.972;2023-03-23T12:41:16;10.90;99.90
2012;DHT22;1009;51.436;6.972;2023-03-23T12:43:51;11.10;99.90
2012;DHT22;1009;51.436;6.972;2023-03-23T12:46:40;11.20;99.90
2012;DHT22;1009;51.436;6.972;2023-03-23T12:49:13;11.10;99.90
2012;DHT22;1009;51.436;6.972;2023-03-23T12:51:45;11.40;99.90
2012;DHT22;1009;51.436;6.972;2023-03-23T12:54:21;11.40;99.90
2012;DHT22;1009;51.436;6.972;2023-03-23T12:56:54;11.40;99.90
2012;DHT22;1009;51.436;6.972;2023-03-23T12:59:29;11.50;99.90
2012;DHT22;1009;51.436;6.972;2023-03-23T13:02:04;11.50;99.90
2012;DHT22;1009;51.436;6.972;2023-03-23T13:04:35;11.50;99.90
2012;DHT22;1009;51.436;6.972;2023-03-23T13:07:05;11.40;99.90
2012;DHT22;1009;51.436;6.972;2023-03-23T13:09:38;11.50;99.90
2012;DHT22;1009;51.436;6.972;2023-03-23T13:12:08;11.60;99.90
2012;DHT22;1009;51.436;6.972;2023-03-23T13:14:43;11.70;99.90
2012;DHT22;1009;51.436;6.972;2023-03-23T13:17:20;11.60;99.90
2012;DHT22;1009;51.436;6.972;2023-03-23T13:20:15;11.60;99.90
2012;DHT22;1009;51.436;6.972;2023-03-23T13:22:49;11.60;99.90
2012;DHT22;1009;51.436;6.972;2023-03-23T13:25:19;11.90;99.90
2012;DHT22;1009;51.436;6.972;2023-03-23T13:27:57;12.10;99.90
2012;DHT22;1009;51.436;6.972;2023-03-23T13:30:27;12.30;99.90
2012;DHT22;1009;51.436;6.972;2023-03-23T13:33:02;12.10;99.90
2012;DHT22;1009;51.436;6.972;2023-03-23T13:35:34;12.10;99.90
2012;DHT22;1009;51.436;6.972;2023-03-23T13:38:01;12.10;99.90
2012;DHT22;1009;51.436;6.972;2023-03-23T13:40:29;12.10;99.90
2012;DHT22;1009;51.436;6.972;2023-03-23T13:42:59;12.00;99.90
2012;DHT22;1009;51.436;6.972;2023-03-23T13:45:43;12.10;99.90
2012;DHT22;1009;51.436;6.972;2023-03-23T13:48:20;12.30;99.90
2012;DHT22;1009;51.436;6.972;2023-03-23T13:50:52;12.30;99.90
2012;DHT22;1009;51.436;6.972;2023-03-23T13:53:25;12.40;99.90
2012;DHT22;1009;51.436;6.972;2023-03-23T13:56:06;12.60;99.90
2012;DHT22;1009;51.436;6.972;2023-03-23T13:58:44;12.50;99.90
2012;DHT22;1009;51.436;6.972;2023-03-23T14:01:15;12.50;99.90
2012;DHT22;1009;51.436;6.972;2023-03-23T14:03:45;12.60;99.90
2012;DHT22;1009;51.436;6.972;2023-03-23T14:06:17;12.50;99.90
2012;DHT22;1009;51.436;6.972;2023-03-23T14:08:47;12.60;99.90
2012;DHT22;1009;51.436;6.972;2023-03-23T14:11:18;12.70;99.90
2012;DHT22;1009;51.436;6.972;2023-03-23T14:13:51;12.80;99.90
2012;DHT22;1009;51.436;6.972;2023-03-23T14:16:22;12.80;99.90
2012;DHT22;1009;51.436;6.972;2023-03-23T14:18:52;12.80;99.90
2012;DHT22;1009;51.436;6.972;2023-03-23T14:21:31;12.90;99.90
2012;DHT22;1009;51.436;6.972;2023-03-23T14:24:03;12.90;99.90
2012;DHT22;1009;51.436;6.972;2023-03-23T14:26:33;13.10;99.90
2012;DHT22;1009;51.436;6.972;2023-03-23T14:29:00;13.20;99.90
2012;DHT22;1009;51.436;6.972;2023-03-23T14:31:29;13.00;99.90
2012;DHT22;1009;51.436;6.972;2023-03-23T14:34:01;13.20;99.90
2012;DHT22;1009;51.436;6.972;2023-03-23T14:36:30;13.40;99.90
2012;DHT22;1009;51.436;6.972;2023-03-23T14:39:04;13.40;99.90
2012;DHT22;1009;51.436;6.972;2023-03-23T14:41:33;13.60;99.90
2012;DHT22;1009;51.436;6.972;2023-03-23T14:44:02;14.10;99.90
2012;DHT22;1009;51.436;6.972;2023-03-23T14:46:31;14.30;99.90
2012;DHT22;1009;51.436;6.972;2023-03-23T14:49:00;13.90;99.90
2012;DHT22;1009;51.436;6.972;2023-03-23T14:51:27;13.80;99.90
2012;DHT22;1009;51.436;6.972;2023-03-23T14:53:54;13.50;99.90
2012;DHT22;1009;51.436;6.972;2023-03-23T14:56:22;13.60;99.90
2012;DHT22;1009;51.436;6.972;2023-03-23T14:58:53;13.60;99.90
2012;DHT22;1009;51.436;6.972;2023-03-23T15:01:24;13.60;99.90
2012;DHT22;1009;51.436;6.972;2023-03-23T15:03:56;13.60;99.90
2012;DHT22;1009;51.436;6.972;2023-03-23T15:06:26;13.30;99.90
2012;DHT22;1009;51.436;6.972;2023-03-23T15:08:56;13.20;99.90
2012;DHT22;1009;51.436;6.972;2023-03-23T15:11:28;13.20;99.90
2012;DHT22;1009;51.436;6.972;2023-03-23T15:13:57;13.30;99.90
2012;DHT22;1009;51.436;6.972;2023-03-23T15:16:27;13.40;99.90
2012;DHT22;1009;51.436;6.972;2023-03-23T15:18:57;13.30;99.90
2012;DHT22;1009;51.436;6.972;2023-03-23T15:21:27;13.50;99.90
2012;DHT22;1009;51.436;6.972;2023-03-23T15:23:55;13.70;99.90
2012;DHT22;1009;51.436;6.972;2023-03-23T15:26:31;13.80;99.90
2012;DHT22;1009;51.436;6.972;2023-03-23T15:29:10;13.90;99.90
2012;DHT22;1009;51.436;6.972;2023-03-23T15:31:40;14.10;99.90
2012;DHT22;1009;51.436;6.972;2023-03-23T15:34:24;14.10;99.90
2012;DHT22;1009;51.436;6.972;2023-03-23T15:36:55;14.10;99.90
2012;DHT22;1009;51.436;6.972;2023-03-23T15:39:22;14.20;99.90
2012;DHT22;1009;51.436;6.972;2023-03-23T15:41:51;14.20;99.90
2012;DHT22;1009;51.436;6.972;2023-03-23T15:44:28;14.20;99.90
2012;DHT22;1009;51.436;6.972;2023-03-23T15:47:04;14.30;99.90
2012;DHT22;1009;51.436;6.972;2023-03-23T15:49:38;14.40;99.90
2012;DHT22;1009;51.436;6.972;2023-03-23T15:52:08;14.30;99.90
2012;DHT22;1009;51.436;6.972;2023-03-23T15:54:35;14.30;99.90
2012;DHT22;1009;51.436;6.972;2023-03-23T15:57:02;14.30;99.90
2012;DHT22;1009;51.436;6.972;2023-03-23T15:59:29;14.40;99.90
2012;DHT22;1009;51.436;6.972;2023-03-23T16:01:56;14.40;99.90
2012;DHT22;1009;51.436;6.972;2023-03-23T16:04:23;14.50;99.90
2012;DHT22;1009;51.436;6.972;2023-03-23T16:06:55;14.50;99.90
2012;DHT22;1009;51.436;6.972;2023-03-23T16:09:23;14.50;99.90
2012;DHT22;1009;51.436;6.972;2023-03-23T16:11:50;14.60;99.90
2012;DHT22;1009;51.436;6.972;2023-03-23T16:14:16;14.60;99.90
2012;DHT22;1009;51.436;6.972;2023-03-23T16:16:45;14.50;99.90
2012;DHT22;1009;51.436;6.972;2023-03-23T16:19:13;14.50;99.90
2012;DHT22;1009;51.436;6.972;2023-03-23T16:21:40;14.50;99.90
2012;DHT22;1009;51.436;6.972;2023-03-23T16:24:09;14.50;99.90
2012;DHT22;1009;51.436;6.972;2023-03-23T16:26:36;14.50;99.90
2012;DHT22;1009;51.436;6.972;2023-03-23T16:29:09;14.50;99.90
2012;DHT22;1009;51.436;6.972;2023-03-23T16:31:36;14.60;99.90